Pagina principale
METAR-TAF:

METAR-TAF

Aeroporti :

Passo Rolle, Italia

latitudine: 46-18N, longitudine: 011-47E, altezza: 2004 m

Osservazione

Il bollettino è stato emesso 2 ore e 12 minuti fa, alle 23:55 UTC
Vento 8 kt da nord/nord-ovest
Temperature 4°C
Umidità 38%
Pressione 1018 hPa
Visibilità 10 km o più
nessuna nube inferiore a 1500 m e nessun cumulonembo

METAR: LIVR 232355Z 33008KT CAVOK 04/M09 Q1018 RMK SKC MON LIB VIS MIN 9999

Ora: 03:07 (02:07 UTC)


TAF: mancante

Osservazioni e previsioni meteorologiche di più di 4000 aeroporti (messaggi METAR e TAF).

Le stazioni disponibili sono rappresentate dai dischi gialli e rossi sulla carta.

Puntare il mouse per vedere il nome della stazione.

Clicca sopra per visualizzare le osservazioni e previsioni meteorologiche.

Per cambiare la mappa : fare clic sui pulsanti verdi con una croce nera per ingrandire, il pulsante verde con un trattino per diminuire, o sulla freccia verde per le mappe adiacenti.


METAR-TAF: